To NAV CANADA Home Page Login to a new session Search on AWWS site Feedback and Comments Disclaimer Vers la page française équivalente Tips FAQ What's new on the site To the Forecasts and Observations / NOTAM section To "File a Flight Plan" website Publications and other links Update of the User's profile FIC Telephone Numbers My Weather Data Folder Route Weather Data Regional Weather Data Local Weather Data To the Forecasts and Observations / NOTAM section
Request Generated 10/17/2017 at 01:48:18 UTC . Weather information available at that time is displayed.

METAR/TAF

BAKER LAKE/NU    

SPECI CYBK 170120Z 34009KT 10SM VCFG BKN003 BKN028 M10/M11 A2982 RMK
ST5SC1 VIS NE 2 1/2 SLP103=
METAR CYBK 170100Z 34011KT 15SM VCFG SCT003 BKN028 M10/M11 A2982 RMK
ST3SC2 VIS NE 3 SLP101=
METAR CYBK 170000Z 32010KT 20SM FEW009 FEW029 M12/M14 A2981 RMK
SC1SC1 SC TR SLP097=
METAR CYBK 162300Z 30010KT 20SM FEW009 FEW029 M11/M12 A2980 RMK
SC1SC1 SC TR SLP095=

TAF AMD CYBK 170134Z 1701/1712 34008KT 11/2SM BR BKN003 OVC020 TEMPO
1701/1704 P6SM VCFG SCT003 OVC025
FM170400 02008KT P6SM SCT006 TEMPO 1704/1708 2SM BR BKN006
FM170800 04008KT P6SM SCT006 BKN030 TEMPO 1708/1712 3SM -SN BR
BKN006
RMK NXT FCST BY 170600Z=
Your time UTC time
Weather data provided by Environment Canada and NAV CANADA